KDFW/DFW METAR and TAF weather

Enter ICAO airport designator
Station Type Date Time Source
KDFW METAR 2019/12/05 14:53 UTC NOAA

KDFW 051453Z 18006KT 10SM BKN250 14/06 A2997 RMK AO2 SLP145 T01440056 53003


Station Type Date Time Source
KDFW Decoded METAR 2019/12/05 14:53 UTC NOAA

DALLAS/FT. WORTH INTERNATIONAL AIRPORT , TX, United States (KDFW) 32-54N 097-02W 174M
Dec 05, 2019 - 09:53 AM EST / 2019.12.05 1453 UTC
Wind: from the S (180 degrees) at 7 MPH (6 KT):0
Visibility: 10 mile(s):0
Sky conditions: mostly cloudy
Temperature: 57.9 F (14.4 C)
Dew Point: 42.1 F (5.6 C)
Relative Humidity: 55%
Pressure (altimeter): 29.97 in. Hg (1014 hPa)
Pressure tendency: 0.01 inches (0.3 hPa) higher than three hours ago
ob: KDFW 051453Z 18006KT 10SM BKN250 14/06 A2997 RMK AO2 SLP145 T01440056 53003
cycle: 15

Station Type Date Time Source
KDFW TAF 2019/12/05 15:04 UTC NOAA

TAF
AMD KDFW 051502Z 0515/0618 16008KT P6SM BKN250
FM051800 18015G25KT P6SM BKN250
FM060800 27012KT P6SM BKN250
FM061000 32015G25KT P6SM SCT030 BKN250
FM061500 34015G25KT P6SM BKN025

Example: see airport list